4XDZM LLHZ-LLHA
Flight info
| Callsign | 4XDZM |
|---|---|
| Flight time | 0h 17m |
| Altitude | 2500 |
| Route | BAZRA DEROR SHARO HADRA FRDIS BOREN HOTRM DAROM GALIM |
| Aircraft | BE36/L-V/N |
Departure
| Time | 2026-04-21 15:57 |
|---|---|
| Airport | Herzliya Airport (LLHZ) |
Arrival
| Time | 2026-04-21 16:15 |
|---|---|
| Airport | Uri Michaeli Haifa International Airport (LLHA) |
| Time | Latitude | Longitude | Altitude | Speed | Heading |
|---|---|---|---|---|---|
| 2026-04-21 15:53 | 32.17931 | 34.83606 | 110 ft | 0 kts | 20° |
| 2026-04-21 15:55 | 32.17932 | 34.83606 | 110 ft | 0 kts | 20° |
| 2026-04-21 15:55 | 32.17939 | 34.83638 | 111 ft | 11 kts | 98° |
| 2026-04-21 15:56 | 32.17902 | 34.83767 | 118 ft | 17 kts | 110° |
| 2026-04-21 15:56 | 32.17888 | 34.83815 | 120 ft | 6 kts | 109° |
| 2026-04-21 15:56 | 32.17903 | 34.83860 | 123 ft | 6 kts | 334° |
| 2026-04-21 15:56 | 32.17918 | 34.83838 | 122 ft | 0 kts | 287° |
| 2026-04-21 15:57 | 32.18000 | 34.83559 | 107 ft | 83 kts | 290° |
| 2026-04-21 15:57 | 32.18325 | 34.82791 | 286 ft | 116 kts | 341° |
| 2026-04-21 15:57 | 32.19147 | 34.83088 | 566 ft | 134 kts | 51° |
| 2026-04-21 15:57 | 32.19051 | 34.84158 | 832 ft | 148 kts | 113° |
| 2026-04-21 15:58 | 32.18719 | 34.85394 | 892 ft | 169 kts | 101° |
| 2026-04-21 15:58 | 32.18660 | 34.86792 | 1057 ft | 172 kts | 84° |
| 2026-04-21 15:58 | 32.19109 | 34.88059 | 1261 ft | 171 kts | 40° |
| 2026-04-21 15:58 | 32.20276 | 34.88408 | 1103 ft | 185 kts | 356° |
| 2026-04-21 15:59 | 32.21556 | 34.88302 | 1147 ft | 183 kts | 360° |
| 2026-04-21 15:59 | 32.22817 | 34.88477 | 1184 ft | 184 kts | 9° |
| 2026-04-21 15:59 | 32.24072 | 34.88721 | 1150 ft | 187 kts | 9° |
| 2026-04-21 15:59 | 32.25355 | 34.88957 | 1159 ft | 186 kts | 6° |
| 2026-04-21 16:00 | 32.26630 | 34.89127 | 1244 ft | 183 kts | 7° |
| 2026-04-21 16:00 | 32.27882 | 34.89397 | 1261 ft | 184 kts | 12° |
| 2026-04-21 16:00 | 32.29091 | 34.89906 | 1257 ft | 184 kts | 22° |
| 2026-04-21 16:00 | 32.30354 | 34.90191 | 1217 ft | 186 kts | 6° |
| 2026-04-21 16:01 | 32.31650 | 34.90348 | 1156 ft | 188 kts | 5° |
| 2026-04-21 16:01 | 32.32942 | 34.90467 | 1225 ft | 184 kts | 4° |
| 2026-04-21 16:01 | 32.34218 | 34.90584 | 1265 ft | 183 kts | 5° |
| 2026-04-21 16:01 | 32.35484 | 34.90718 | 1323 ft | 182 kts | 5° |
| 2026-04-21 16:02 | 32.36754 | 34.90807 | 1322 ft | 184 kts | 356° |
| 2026-04-21 16:02 | 32.38009 | 34.90626 | 1326 ft | 185 kts | 352° |
| 2026-04-21 16:02 | 32.39271 | 34.90441 | 1416 ft | 181 kts | 355° |
| 2026-04-21 16:02 | 32.40538 | 34.90479 | 1410 ft | 185 kts | 9° |
| 2026-04-21 16:03 | 32.41821 | 34.90762 | 1287 ft | 190 kts | 9° |
| 2026-04-21 16:03 | 32.43116 | 34.91010 | 1376 ft | 183 kts | 9° |
| 2026-04-21 16:03 | 32.44350 | 34.91230 | 1507 ft | 180 kts | 356° |
| 2026-04-21 16:03 | 32.45600 | 34.91036 | 1504 ft | 180 kts | 9° |
| 2026-04-21 16:04 | 32.46811 | 34.91442 | 1488 ft | 184 kts | 18° |
| 2026-04-21 16:04 | 32.48027 | 34.91903 | 1563 ft | 183 kts | 17° |
| 2026-04-21 16:04 | 32.49215 | 34.92345 | 1673 ft | 179 kts | 14° |
| 2026-04-21 16:04 | 32.50436 | 34.92592 | 1814 ft | 177 kts | 7° |
| 2026-04-21 16:05 | 32.51655 | 34.92734 | 1924 ft | 177 kts | 4° |
| 2026-04-21 16:05 | 32.52900 | 34.92882 | 1953 ft | 180 kts | 9° |
| 2026-04-21 16:05 | 32.54131 | 34.93146 | 2030 ft | 181 kts | 9° |
| 2026-04-21 16:05 | 32.55354 | 34.93439 | 2166 ft | 178 kts | 10° |
| 2026-04-21 16:06 | 32.56600 | 34.93684 | 2100 ft | 185 kts | 7° |
| 2026-04-21 16:06 | 32.57871 | 34.93861 | 2150 ft | 183 kts | 5° |
| 2026-04-21 16:06 | 32.59139 | 34.94025 | 2173 ft | 183 kts | 10° |
| 2026-04-21 16:06 | 32.60361 | 34.94452 | 2183 ft | 186 kts | 21° |
| 2026-04-21 16:07 | 32.61529 | 34.95126 | 2157 ft | 185 kts | 25° |
| 2026-04-21 16:07 | 32.62681 | 34.95720 | 2221 ft | 184 kts | 21° |
| 2026-04-21 16:07 | 32.63892 | 34.96244 | 2213 ft | 186 kts | 18° |
| 2026-04-21 16:07 | 32.65117 | 34.96726 | 2263 ft | 185 kts | 18° |
| 2026-04-21 16:08 | 32.67636 | 34.97311 | 2181 ft | 189 kts | 2° |
| 2026-04-21 16:08 | 32.68951 | 34.97194 | 2067 ft | 190 kts | 345° |
| 2026-04-21 16:08 | 32.70127 | 34.96550 | 2092 ft | 185 kts | 326° |
| 2026-04-21 16:09 | 32.71259 | 34.95784 | 1929 ft | 191 kts | 337° |
| 2026-04-21 16:09 | 32.72511 | 34.95336 | 1855 ft | 191 kts | 349° |
| 2026-04-21 16:09 | 32.73840 | 34.95188 | 1733 ft | 193 kts | 357° |
| 2026-04-21 16:09 | 32.75197 | 34.95210 | 1584 ft | 195 kts | 2° |
| 2026-04-21 16:10 | 32.76536 | 34.95274 | 1581 ft | 190 kts | 2° |
| 2026-04-21 16:10 | 32.77868 | 34.95314 | 1463 ft | 192 kts | 0° |
| 2026-04-21 16:10 | 32.79169 | 34.95344 | 1487 ft | 184 kts | 1° |
| 2026-04-21 16:10 | 32.80447 | 34.95390 | 1478 ft | 182 kts | 2° |
| 2026-04-21 16:11 | 32.81692 | 34.95616 | 1444 ft | 184 kts | 16° |
| 2026-04-21 16:11 | 32.82863 | 34.96246 | 1434 ft | 183 kts | 33° |
| 2026-04-21 16:11 | 32.83738 | 34.97306 | 1524 ft | 178 kts | 60° |
| 2026-04-21 16:11 | 32.83988 | 34.98704 | 1656 ft | 173 kts | 93° |
| 2026-04-21 16:12 | 32.83730 | 35.00121 | 1691 ft | 179 kts | 105° |
| 2026-04-21 16:12 | 32.83516 | 35.01600 | 1580 ft | 187 kts | 96° |
| 2026-04-21 16:12 | 32.83488 | 35.03100 | 1759 ft | 178 kts | 85° |
| 2026-04-21 16:12 | 32.83517 | 35.04602 | 1634 ft | 188 kts | 99° |
| 2026-04-21 16:13 | 32.83035 | 35.06037 | 1614 ft | 187 kts | 127° |
| 2026-04-21 16:13 | 32.82024 | 35.07018 | 1375 ft | 195 kts | 150° |
| 2026-04-21 16:13 | 32.80850 | 35.07707 | 1081 ft | 173 kts | 160° |
| 2026-04-21 16:13 | 32.79769 | 35.07922 | 986 ft | 146 kts | 191° |
| 2026-04-21 16:14 | 32.78985 | 35.07267 | 819 ft | 141 kts | 234° |
| 2026-04-21 16:14 | 32.78347 | 35.06373 | 703 ft | 135 kts | 235° |
| 2026-04-21 16:14 | 32.78353 | 35.05467 | 678 ft | 110 kts | 311° |
| 2026-04-21 16:14 | 32.79051 | 35.05105 | 402 ft | 109 kts | 346° |
| 2026-04-21 16:15 | 32.79746 | 35.04883 | 215 ft | 100 kts | 341° |
| 2026-04-21 16:15 | 32.80391 | 35.04625 | 44 ft | 97 kts | 342° |
| 2026-04-21 16:15 | 32.80848 | 35.04436 | 11 ft | 27 kts | 350° |
| 2026-04-21 16:15 | 32.80996 | 35.04378 | 12 ft | 25 kts | 344° |
| 2026-04-21 16:16 | 32.81153 | 35.04282 | 13 ft | 25 kts | 282° |
| 2026-04-21 16:16 | 32.81153 | 35.04231 | 13 ft | 0 kts | 254° |
| 2026-04-21 16:16 | 32.81152 | 35.04227 | 13 ft | 4 kts | 254° |
| 2026-04-21 16:16 | 32.81155 | 35.04176 | 14 ft | 0 kts | 335° |